createdAt,value
2023-02-01T00:00:36.310Z,10.00
2023-02-01T00:03:02.596Z,9.03
2023-02-01T00:05:28.885Z,10.17
2023-02-01T00:07:55.137Z,9.40
2023-02-01T00:10:21.679Z,9.67
2023-02-01T00:12:48.277Z,8.40
2023-02-01T00:15:14.586Z,7.70
2023-02-01T00:17:40.795Z,7.40
2023-02-01T00:20:25.870Z,7.33
2023-02-01T00:22:52.160Z,6.13
2023-02-01T00:25:18.427Z,4.93
2023-02-01T00:27:49.049Z,5.00
2023-02-01T00:30:15.401Z,5.10
2023-02-01T00:32:41.612Z,4.60
2023-02-01T00:35:12.797Z,3.83
2023-02-01T00:37:39.097Z,4.00
2023-02-01T00:40:05.669Z,4.00
2023-02-01T00:42:32.512Z,4.80
2023-02-01T00:44:58.749Z,3.90
2023-02-01T00:47:24.997Z,4.00
2023-02-01T00:50:10.230Z,3.97
2023-02-01T00:52:36.533Z,4.10
2023-02-01T00:55:03.089Z,3.77
2023-02-01T00:57:29.362Z,3.60
2023-02-01T00:59:55.658Z,4.30
2023-02-01T01:02:21.973Z,4.10
2023-02-01T01:04:48.307Z,3.70
2023-02-01T01:07:14.588Z,3.40
2023-02-01T01:09:40.925Z,4.67
2023-02-01T01:12:07.235Z,4.20
2023-02-01T01:14:33.623Z,3.73
2023-02-01T01:16:59.920Z,4.40
2023-02-01T01:19:26.190Z,4.00
2023-02-01T01:21:52.438Z,4.50
2023-02-01T01:24:18.780Z,4.60
2023-02-01T01:26:45.124Z,4.83
2023-02-01T01:29:12.000Z,4.30
2023-02-01T01:31:38.352Z,4.40
2023-02-01T01:34:04.639Z,4.57
2023-02-01T01:36:30.861Z,4.70
2023-02-01T01:38:57.082Z,5.10
2023-02-01T01:41:25.115Z,5.23
2023-02-01T01:44:01.804Z,5.80
2023-02-01T01:46:29.576Z,5.40
2023-02-01T01:49:06.300Z,4.90
2023-02-01T01:51:33.729Z,4.87
2023-02-01T01:54:07.644Z,4.87
2023-02-01T01:56:35.528Z,4.80
2023-02-01T01:59:02.118Z,4.70
2023-02-01T02:01:28.669Z,5.00
2023-02-01T02:03:55.763Z,4.93
2023-02-01T02:06:33.113Z,5.33
2023-02-01T02:08:59.428Z,5.50
2023-02-01T02:11:25.719Z,5.90
2023-02-01T02:13:53.378Z,6.27
2023-02-01T02:16:27.351Z,5.70
2023-02-01T02:19:02.305Z,6.57
2023-02-01T02:21:31.639Z,6.00
2023-02-01T02:24:16.669Z,6.17
2023-02-01T02:27:02.093Z,6.13
2023-02-01T02:29:47.252Z,6.73
2023-02-01T02:32:13.524Z,6.37
2023-02-01T02:34:41.206Z,6.50
2023-02-01T02:37:26.225Z,5.90
2023-02-01T02:40:07.492Z,5.83
2023-02-01T02:42:57.551Z,5.13
2023-02-01T02:45:47.434Z,5.57
2023-02-01T02:48:18.844Z,5.60
2023-02-01T02:51:06.478Z,5.17
2023-02-01T02:54:00.546Z,4.73
2023-02-01T02:56:45.654Z,5.47
2023-02-01T02:59:31.965Z,5.13
2023-02-01T03:02:16.826Z,4.70
2023-02-01T03:04:43.321Z,4.73
2023-02-01T03:07:13.605Z,4.73
2023-02-01T03:09:41.348Z,4.47
2023-02-01T03:12:28.693Z,4.27
2023-02-01T03:15:06.719Z,4.90
2023-02-01T03:17:36.532Z,4.50
2023-02-01T03:20:04.144Z,5.83
2023-02-01T03:22:32.578Z,5.20
2023-02-01T03:25:01.875Z,5.00
2023-02-01T03:27:33.586Z,4.33
2023-02-01T03:30:09.003Z,4.97
2023-02-01T03:32:56.280Z,4.63
2023-02-01T03:35:31.372Z,4.83
2023-02-01T03:38:02.073Z,5.20
2023-02-01T03:40:29.060Z,4.40
2023-02-01T03:42:56.252Z,5.27
2023-02-01T03:45:28.720Z,5.63
2023-02-01T03:47:57.017Z,5.50
2023-02-01T03:50:26.144Z,5.30
2023-02-01T03:52:55.288Z,5.43
2023-02-01T03:55:23.292Z,5.53
2023-02-01T03:57:53.851Z,6.63
2023-02-01T04:00:23.032Z,6.50
2023-02-01T04:02:49.632Z,5.63
2023-02-01T04:05:16.130Z,5.10
2023-02-01T04:08:01.171Z,6.23
2023-02-01T04:10:27.539Z,5.70
2023-02-01T04:12:53.864Z,5.63
2023-02-01T04:15:20.230Z,5.60
2023-02-01T04:17:46.565Z,5.17
2023-02-01T04:20:12.897Z,5.40
2023-02-01T04:22:39.269Z,5.73
2023-02-01T04:25:06.696Z,5.80
2023-02-01T04:27:33.025Z,5.23
2023-02-01T04:29:59.294Z,5.70
2023-02-01T04:32:25.608Z,6.20
2023-02-01T04:34:51.894Z,5.13
2023-02-01T04:37:18.145Z,5.50
2023-02-01T04:39:44.398Z,5.10
2023-02-01T04:42:10.749Z,4.43
2023-02-01T04:44:42.731Z,5.20
2023-02-01T04:47:09.354Z,4.80
2023-02-01T04:49:35.864Z,4.10
2023-02-01T04:52:02.200Z,4.43
2023-02-01T04:54:28.549Z,4.37
2023-02-01T04:56:54.869Z,4.13
2023-02-01T04:59:21.243Z,4.07
2023-02-01T05:01:48.979Z,4.73
2023-02-01T05:04:15.655Z,4.40
2023-02-01T05:06:41.946Z,3.93
2023-02-01T05:09:08.267Z,4.10
2023-02-01T05:11:53.289Z,4.13
2023-02-01T05:14:19.564Z,3.80
2023-02-01T05:16:45.796Z,3.47
2023-02-01T05:19:12.432Z,3.90
2023-02-01T05:21:38.809Z,4.23
2023-02-01T05:24:11.059Z,4.43
2023-02-01T05:26:37.804Z,3.13
2023-02-01T05:29:04.732Z,3.37
2023-02-01T05:31:31.085Z,3.60
2023-02-01T05:33:57.486Z,3.40
2023-02-01T05:36:23.747Z,3.40
2023-02-01T05:38:50.123Z,3.00
2023-02-01T05:41:16.413Z,3.10
2023-02-01T05:43:42.716Z,3.83
2023-02-01T05:46:11.641Z,2.87
2023-02-01T05:48:37.941Z,2.90
2023-02-01T05:51:04.248Z,3.00
2023-02-01T05:53:30.504Z,3.40
2023-02-01T05:55:56.794Z,2.93
2023-02-01T05:58:23.322Z,2.97
2023-02-01T06:00:49.639Z,6.07
2023-02-01T06:03:15.931Z,3.50
2023-02-01T06:05:44.365Z,3.03
2023-02-01T06:08:10.680Z,3.70
2023-02-01T06:10:36.905Z,3.30
2023-02-01T06:13:04.494Z,3.20
2023-02-01T06:15:31.185Z,3.87
2023-02-01T06:17:57.476Z,3.20
2023-02-01T06:20:24.094Z,3.47
2023-02-01T06:22:50.692Z,3.43
2023-02-01T06:25:17.976Z,3.50
2023-02-01T06:27:46.005Z,3.43
2023-02-01T06:30:14.498Z,3.53
2023-02-01T06:32:41.299Z,3.70
2023-02-01T06:35:08.658Z,3.43
2023-02-01T06:37:35.176Z,3.53
2023-02-01T06:40:01.471Z,3.10
2023-02-01T06:42:27.747Z,3.37
2023-02-01T06:44:54.002Z,4.47
2023-02-01T06:47:20.325Z,13.53
2023-02-01T06:49:46.607Z,3.60
2023-02-01T06:52:12.904Z,4.00
2023-02-01T06:54:39.252Z,3.30
2023-02-01T06:57:05.556Z,3.50
2023-02-01T06:59:34.393Z,3.90
2023-02-01T07:02:00.815Z,3.00
2023-02-01T07:04:27.082Z,3.77
2023-02-01T07:06:53.450Z,4.30
2023-02-01T07:09:19.735Z,3.47
2023-02-01T07:11:45.989Z,3.43
2023-02-01T07:14:12.519Z,2.90
2023-02-01T07:16:39.344Z,3.57
2023-02-01T07:19:05.789Z,3.60
2023-02-01T07:21:32.075Z,3.57
2023-02-01T07:23:59.141Z,3.93
2023-02-01T07:26:25.440Z,4.00
2023-02-01T07:28:51.772Z,3.53
2023-02-01T07:31:22.689Z,3.17
2023-02-01T07:33:52.429Z,3.37
2023-02-01T07:36:19.524Z,3.63
2023-02-01T07:38:47.903Z,3.30
2023-02-01T07:41:14.452Z,3.70
2023-02-01T07:43:40.831Z,3.60
2023-02-01T07:46:07.768Z,4.70
2023-02-01T07:48:37.046Z,3.57
2023-02-01T07:51:11.333Z,3.60
2023-02-01T07:53:37.895Z,3.73
2023-02-01T07:56:04.557Z,3.30
2023-02-01T07:58:30.924Z,3.70
2023-02-01T08:01:15.973Z,3.50
2023-02-01T08:03:42.418Z,4.00
2023-02-01T08:06:08.727Z,4.13
2023-02-01T08:08:35.304Z,3.43
2023-02-01T08:11:02.445Z,3.50
2023-02-01T08:13:29.055Z,3.90
2023-02-01T08:15:58.904Z,3.83
2023-02-01T08:18:25.216Z,3.23
2023-02-01T08:20:51.973Z,3.33
2023-02-01T08:23:18.424Z,3.40
2023-02-01T08:25:44.746Z,3.50
2023-02-01T08:28:11.357Z,3.47
2023-02-01T08:30:39.311Z,3.30
2023-02-01T08:33:07.681Z,3.63
2023-02-01T08:35:43.403Z,4.20
2023-02-01T08:38:10.333Z,3.43
2023-02-01T08:40:36.717Z,4.03
2023-02-01T08:43:03.027Z,3.10
2023-02-01T08:45:30.849Z,3.20
2023-02-01T08:47:57.720Z,3.10
2023-02-01T08:50:24.655Z,3.73
2023-02-01T08:52:51.246Z,4.00
2023-02-01T08:55:18.763Z,3.27
2023-02-01T08:57:45.288Z,2.87
2023-02-01T09:00:12.729Z,3.30
2023-02-01T09:02:39.032Z,3.20
2023-02-01T09:05:05.580Z,3.10
2023-02-01T09:07:32.637Z,3.50
2023-02-01T09:10:01.881Z,3.20
2023-02-01T09:12:32.087Z,3.10
2023-02-01T09:15:00.508Z,3.17
2023-02-01T09:19:58.726Z,3.27
2023-02-01T09:22:25.171Z,3.40
2023-02-01T09:24:54.160Z,3.23
2023-02-01T09:27:21.253Z,3.77
2023-02-01T09:29:53.101Z,3.17
2023-02-01T09:32:23.115Z,2.97
2023-02-01T09:34:52.769Z,3.57
2023-02-01T09:37:19.516Z,3.03
2023-02-01T09:39:45.815Z,3.40
2023-02-01T09:42:36.857Z,2.87
2023-02-01T09:45:06.181Z,3.13
2023-02-01T09:47:32.653Z,2.80
2023-02-01T09:50:17.967Z,3.57
2023-02-01T09:52:46.623Z,3.20
2023-02-01T09:55:19.248Z,2.93
2023-02-01T09:57:45.657Z,2.67
2023-02-01T10:00:31.446Z,3.17
2023-02-01T10:02:57.820Z,3.13
2023-02-01T10:05:43.153Z,2.80
2023-02-01T10:08:25.824Z,3.33
2023-02-01T10:10:52.391Z,3.23
2023-02-01T10:13:37.925Z,2.90
2023-02-01T10:16:13.053Z,3.60
2023-02-01T10:18:45.298Z,2.93
2023-02-01T10:21:14.626Z,3.37
2023-02-01T10:24:03.536Z,3.30
2023-02-01T10:26:38.940Z,3.00
2023-02-01T10:29:09.197Z,3.17
2023-02-01T10:31:38.381Z,3.00
2023-02-01T10:34:16.194Z,3.30
2023-02-01T10:36:48.736Z,3.13
2023-02-01T10:39:15.590Z,3.77
2023-02-01T10:41:43.864Z,3.47
2023-02-01T10:44:13.992Z,2.93
2023-02-01T10:46:40.586Z,3.30
2023-02-01T10:49:13.007Z,3.27
2023-02-01T10:51:57.745Z,3.07
2023-02-01T10:54:33.405Z,3.50
2023-02-01T10:57:00.629Z,4.43
2023-02-01T10:59:29.441Z,3.30
2023-02-01T11:02:00.921Z,3.87
2023-02-01T11:04:27.344Z,3.37
2023-02-01T11:06:54.630Z,3.00
2023-02-01T11:09:25.355Z,3.70
2023-02-01T11:11:51.616Z,3.20
2023-02-01T11:14:19.204Z,3.83
2023-02-01T11:17:02.718Z,3.40
2023-02-01T11:19:29.563Z,2.60
2023-02-01T11:21:57.336Z,3.03
2023-02-01T11:24:45.308Z,2.80
2023-02-01T11:27:18.921Z,2.93
2023-02-01T11:29:52.762Z,2.40
2023-02-01T11:32:20.520Z,3.20
2023-02-01T11:34:53.819Z,3.23
2023-02-01T11:37:22.350Z,2.70
2023-02-01T11:39:56.156Z,2.63
2023-02-01T11:42:22.612Z,2.57
2023-02-01T11:44:49.024Z,2.40
2023-02-01T11:47:34.210Z,3.23
2023-02-01T11:50:17.573Z,2.67
2023-02-01T11:53:17.869Z,2.70
2023-02-01T11:55:44.257Z,5.97
2023-02-01T11:58:10.548Z,2.90
2023-02-01T12:00:53.022Z,3.50
2023-02-01T12:03:58.636Z,2.90
2023-02-01T12:06:50.643Z,2.50
2023-02-01T12:09:23.037Z,3.03
2023-02-01T12:11:49.277Z,2.90
2023-02-01T12:14:42.736Z,3.67
2023-02-01T12:17:24.037Z,2.70
2023-02-01T12:20:04.156Z,3.37
2023-02-01T12:22:36.625Z,2.87
2023-02-01T12:25:22.664Z,2.40
2023-02-01T12:28:09.150Z,3.03
2023-02-01T12:30:53.519Z,2.80
2023-02-01T12:33:22.843Z,2.93
2023-02-01T12:35:52.162Z,2.60
2023-02-01T12:38:30.600Z,2.73
2023-02-01T12:41:06.011Z,2.70
2023-02-01T12:43:39.542Z,3.20
2023-02-01T12:46:29.620Z,3.03
2023-02-01T12:48:59.128Z,2.90
2023-02-01T12:51:30.388Z,2.80
2023-02-01T12:54:01.125Z,2.47
2023-02-01T12:56:34.351Z,2.60
2023-02-01T12:59:19.426Z,2.87
2023-02-01T13:02:01.646Z,3.07
2023-02-01T13:04:53.094Z,2.63
2023-02-01T13:07:25.656Z,2.70
2023-02-01T13:09:58.785Z,2.80
2023-02-01T13:12:37.832Z,3.87
2023-02-01T13:15:42.859Z,3.00
2023-02-01T13:18:11.716Z,2.43
2023-02-01T13:20:58.288Z,3.13
2023-02-01T13:23:32.802Z,2.50
2023-02-01T13:25:59.364Z,2.93
2023-02-01T13:28:27.673Z,2.93
2023-02-01T13:30:53.989Z,3.00
2023-02-01T13:33:53.887Z,2.90
2023-02-01T13:36:18.718Z,3.27
2023-02-01T13:38:55.964Z,2.67
2023-02-01T13:41:28.857Z,3.20
2023-02-01T13:43:58.718Z,3.10
2023-02-01T13:46:25.106Z,2.47
2023-02-01T13:48:53.886Z,2.47
2023-02-01T13:51:31.661Z,2.60
2023-02-01T13:53:57.961Z,2.73
2023-02-01T13:56:25.088Z,2.50
2023-02-01T13:58:52.321Z,2.57
2023-02-01T14:01:21.560Z,2.57
2023-02-01T14:03:53.998Z,2.70
2023-02-01T14:06:26.420Z,2.40
2023-02-01T14:09:14.246Z,2.60
2023-02-01T14:11:43.051Z,2.47
2023-02-01T14:14:15.360Z,2.30
2023-02-01T14:16:42.371Z,2.90
2023-02-01T14:19:10.574Z,2.30
2023-02-01T14:21:48.240Z,16.87
2023-02-01T14:24:25.561Z,2.80
2023-02-01T14:26:53.375Z,2.40
2023-02-01T14:29:27.421Z,2.10
2023-02-01T14:32:06.824Z,2.43
2023-02-01T14:34:44.092Z,2.67
2023-02-01T14:37:12.554Z,2.10
2023-02-01T14:39:50.795Z,2.40
2023-02-01T14:42:22.809Z,2.47
2023-02-01T14:44:59.879Z,2.33
2023-02-01T14:47:31.657Z,2.30
2023-02-01T14:50:05.183Z,2.47
2023-02-01T14:52:43.173Z,2.70
2023-02-01T14:55:12.678Z,2.80
2023-02-01T14:57:41.168Z,2.70
2023-02-01T15:00:15.394Z,2.47
2023-02-01T15:02:42.569Z,2.43
2023-02-01T15:05:41.352Z,2.53
2023-02-01T15:08:14.481Z,1.97
2023-02-01T15:10:44.450Z,2.20
2023-02-01T15:13:19.535Z,2.00
2023-02-01T15:15:45.867Z,2.30
2023-02-01T15:18:16.981Z,2.13
2023-02-01T15:20:50.931Z,2.50
2023-02-01T15:23:29.836Z,2.03
2023-02-01T15:25:56.942Z,2.20
2023-02-01T15:28:23.625Z,2.33
2023-02-01T15:31:00.810Z,1.97
2023-02-01T15:33:29.096Z,2.00
2023-02-01T15:36:07.631Z,2.50
2023-02-01T15:38:36.408Z,2.37
2023-02-01T15:41:11.898Z,2.13
2023-02-01T15:44:10.773Z,2.00
2023-02-01T15:46:39.418Z,1.87
2023-02-01T15:49:06.152Z,1.97
2023-02-01T15:51:33.608Z,2.60
2023-02-01T15:54:15.126Z,2.57
2023-02-01T15:56:42.186Z,2.00
2023-02-01T15:59:18.457Z,4.03
2023-02-01T16:01:45.263Z,2.10
2023-02-01T16:04:14.580Z,2.83
2023-02-01T16:06:46.504Z,2.43
2023-02-01T16:09:13.933Z,2.40
2023-02-01T16:11:49.300Z,3.50
2023-02-01T16:14:16.144Z,2.70
2023-02-01T16:16:42.984Z,2.70
2023-02-01T16:19:29.281Z,2.20
2023-02-01T16:22:14.018Z,3.30
2023-02-01T16:24:58.771Z,2.47
2023-02-01T16:27:43.645Z,2.23
2023-02-01T16:30:10.796Z,2.70
2023-02-01T16:32:40.634Z,4.37
2023-02-01T16:35:14.153Z,2.33
2023-02-01T16:37:40.470Z,3.90
2023-02-01T16:40:07.013Z,2.83
2023-02-01T16:42:33.270Z,3.30
2023-02-01T16:44:59.522Z,2.63
2023-02-01T16:47:25.862Z,2.80
2023-02-01T16:49:52.368Z,2.80
2023-02-01T16:52:20.583Z,2.70
2023-02-01T16:54:47.310Z,2.97
2023-02-01T16:57:14.822Z,3.37
2023-02-01T16:59:41.320Z,4.17
2023-02-01T17:02:11.526Z,3.10
2023-02-01T17:04:37.980Z,3.37
2023-02-01T17:07:09.494Z,3.60
2023-02-01T17:09:39.304Z,3.90
2023-02-01T17:12:05.935Z,4.00
2023-02-01T17:14:37.415Z,3.53
2023-02-01T17:17:04.494Z,3.87
2023-02-01T17:19:30.857Z,3.10
2023-02-01T17:21:59.426Z,3.20
2023-02-01T17:24:35.733Z,3.47
2023-02-01T17:27:05.513Z,3.87
2023-02-01T17:29:31.776Z,5.90
2023-02-01T17:32:00.412Z,5.53
2023-02-01T17:34:27.021Z,4.83
2023-02-01T17:36:53.291Z,4.33
2023-02-01T17:39:38.576Z,4.20
2023-02-01T17:42:05.956Z,3.90
2023-02-01T17:44:32.580Z,4.47
2023-02-01T17:46:59.763Z,4.20
2023-02-01T17:49:28.748Z,3.67
2023-02-01T17:51:55.955Z,3.63
2023-02-01T17:54:22.527Z,3.67
2023-02-01T17:56:48.876Z,3.60
2023-02-01T17:59:15.788Z,3.80
2023-02-01T18:01:42.034Z,3.93
2023-02-01T18:04:16.964Z,3.20
2023-02-01T18:06:43.307Z,3.60
2023-02-01T18:09:09.585Z,3.90
2023-02-01T18:11:35.978Z,3.60
2023-02-01T18:14:02.484Z,4.43
2023-02-01T18:16:30.662Z,3.73
2023-02-01T18:19:02.334Z,3.70
2023-02-01T18:21:32.677Z,4.30
2023-02-01T18:23:59.566Z,3.50
2023-02-01T18:26:44.251Z,9.57
2023-02-01T18:29:10.569Z,4.23
2023-02-01T18:31:39.761Z,5.13
2023-02-01T18:34:06.148Z,5.20
2023-02-01T18:36:32.475Z,7.87
2023-02-01T18:38:58.786Z,4.70
2023-02-01T18:41:25.323Z,5.10
2023-02-01T18:43:52.105Z,4.13
2023-02-01T18:46:18.656Z,3.97
2023-02-01T18:48:45.077Z,4.20
2023-02-01T18:51:12.195Z,4.03
2023-02-01T18:53:38.486Z,3.63
2023-02-01T18:56:04.939Z,3.87
2023-02-01T18:58:31.793Z,4.00
2023-02-01T19:01:04.436Z,3.83
2023-02-01T19:03:30.787Z,4.03
2023-02-01T19:05:58.441Z,4.10
2023-02-01T19:08:25.625Z,3.73
2023-02-01T19:10:52.607Z,3.83
2023-02-01T19:13:38.351Z,4.00
2023-02-01T19:16:23.765Z,4.50
2023-02-01T19:18:50.525Z,3.83
2023-02-01T19:21:17.380Z,4.07
2023-02-01T19:23:43.636Z,3.70
2023-02-01T19:26:10.719Z,4.00
2023-02-01T19:28:49.169Z,4.80
2023-02-01T19:31:16.319Z,3.93
2023-02-01T19:33:42.706Z,4.00
2023-02-01T19:36:09.748Z,4.10
2023-02-01T19:38:36.510Z,5.17
2023-02-01T19:41:03.092Z,3.67
2023-02-01T19:43:29.359Z,3.90
2023-02-01T19:45:55.984Z,3.97
2023-02-01T19:48:22.313Z,4.13
2023-02-01T19:50:48.675Z,4.13
2023-02-01T19:53:14.955Z,4.63
2023-02-01T19:55:45.562Z,3.90
2023-02-01T19:58:11.936Z,4.20
2023-02-01T20:00:37.325Z,3.87
2023-02-01T20:03:03.963Z,3.80
2023-02-01T20:05:30.303Z,4.43
2023-02-01T20:07:56.606Z,4.10
2023-02-01T20:10:23.393Z,3.93
2023-02-01T20:12:49.797Z,3.83
2023-02-01T20:15:18.771Z,4.40
2023-02-01T20:17:45.099Z,3.93
2023-02-01T20:20:11.488Z,4.07
2023-02-01T20:22:38.784Z,5.70
2023-02-01T20:25:06.387Z,4.27
2023-02-01T20:27:33.558Z,4.43
2023-02-01T20:29:59.798Z,4.17
2023-02-01T20:32:26.135Z,4.40
2023-02-01T20:34:53.549Z,4.40
2023-02-01T20:37:20.656Z,4.10
2023-02-01T20:39:47.002Z,4.87
2023-02-01T20:42:13.275Z,4.10
2023-02-01T20:44:39.612Z,3.83
2023-02-01T20:47:05.868Z,4.80
2023-02-01T20:49:52.601Z,4.43
2023-02-01T20:52:37.641Z,4.20
2023-02-01T20:55:05.113Z,4.13
2023-02-01T20:57:31.418Z,4.30
2023-02-01T20:59:57.713Z,4.40
2023-02-01T21:02:24.451Z,4.00
2023-02-01T21:04:50.763Z,4.30
2023-02-01T21:07:17.024Z,4.77
2023-02-01T21:09:43.251Z,4.23
2023-02-01T21:12:10.088Z,3.77
2023-02-01T21:14:36.444Z,4.10
2023-02-01T21:17:02.728Z,4.60
2023-02-01T21:19:47.641Z,4.33
2023-02-01T21:22:14.532Z,4.97
2023-02-01T21:24:41.421Z,4.70
2023-02-01T21:27:10.849Z,4.87
2023-02-01T21:29:37.318Z,5.00
2023-02-01T21:32:06.846Z,4.63
2023-02-01T21:34:33.609Z,6.00
2023-02-01T21:37:01.342Z,5.30
2023-02-01T21:39:28.843Z,5.10
2023-02-01T21:42:13.909Z,5.60
2023-02-01T21:44:40.664Z,5.13
2023-02-01T21:47:07.971Z,4.53
2023-02-01T21:49:35.182Z,4.90
2023-02-01T21:52:01.913Z,5.00
2023-02-01T21:54:28.186Z,5.53
2023-02-01T21:56:54.429Z,5.90
2023-02-01T21:59:20.688Z,5.53
2023-02-01T22:01:46.992Z,5.03
2023-02-01T22:04:13.300Z,5.80
2023-02-01T22:06:45.878Z,5.23
2023-02-01T22:09:21.949Z,5.47
2023-02-01T22:11:48.847Z,5.20
2023-02-01T22:14:15.670Z,5.40
2023-02-01T22:16:42.293Z,5.90
2023-02-01T22:19:12.481Z,6.37
2023-02-01T22:21:39.377Z,5.90
2023-02-01T22:24:05.812Z,5.70
2023-02-01T22:26:32.125Z,5.57
2023-02-01T22:28:58.401Z,5.67
2023-02-01T22:31:24.960Z,5.90
2023-02-01T22:33:51.270Z,5.87
2023-02-01T22:36:17.835Z,6.40
2023-02-01T22:38:44.465Z,6.90
2023-02-01T22:41:10.708Z,5.67
2023-02-01T22:43:37.310Z,5.90
2023-02-01T22:46:05.341Z,6.40
2023-02-01T22:48:34.110Z,5.20
2023-02-01T22:51:01.065Z,5.33
2023-02-01T22:53:27.997Z,5.10
2023-02-01T22:55:59.393Z,4.70
2023-02-01T22:58:25.682Z,5.00
2023-02-01T23:00:51.906Z,5.40
2023-02-01T23:03:18.445Z,4.47
2023-02-01T23:05:44.750Z,5.07
2023-02-01T23:08:10.965Z,5.57
2023-02-01T23:10:37.219Z,5.50
2023-02-01T23:13:04.071Z,6.27
2023-02-01T23:15:39.300Z,5.10
2023-02-01T23:18:05.620Z,5.47
2023-02-01T23:20:31.928Z,5.20
2023-02-01T23:22:58.151Z,5.30
2023-02-01T23:25:24.629Z,4.90
2023-02-01T23:27:51.193Z,5.00
2023-02-01T23:30:17.527Z,5.03
2023-02-01T23:32:43.801Z,5.43
2023-02-01T23:35:10.061Z,5.70
2023-02-01T23:37:36.326Z,5.00
2023-02-01T23:40:02.625Z,5.00
2023-02-01T23:42:28.855Z,5.10
2023-02-01T23:44:55.111Z,5.43
2023-02-01T23:47:21.389Z,5.47
2023-02-01T23:49:47.739Z,4.67
2023-02-01T23:52:14.160Z,5.40
2023-02-01T23:54:40.452Z,4.50
2023-02-01T23:57:06.755Z,5.60
2023-02-01T23:59:33.000Z,5.50
